Lum, Michigan
Current Conditions -  °F | °C
As of 5:54 AM on Monday 20 Oct 2014 (Local Time) from KD95 Reporting Station
Overcast Overcast  
Wind Chill:   Ceiling: 4500
Heat Index:   Visibility: 10mi
Dew Point:   Wind: 8mph
Humidity: 90%   Direction: 220°SW
Pressure: 29.85"   Gusts: NA
Location:  43.0581°N, 83.167°W
Report Text: KD95 200954Z AUTO 22007KT 10SM OVC045 08/06 A2985 RMK AO2 T00760060
Loading
Personal Weather Stations






























Interactive Weather Map
Tropical Storm Tracking
New forecast layout! Learn more

10-Day Weather Forecast

Advertisements
Track Severe Weather on mobile